Time;durP1;ratioP1;P1;durP2;ratioP2;P2;SDS_P1;SDS_P2;PMS_P1;PMS_P2;Temp;Humidity;BMP_temperature;BMP_pressure;BME280_temperature;BME280_humidity;BME280_pressure;Samples;Min_cycle;Max_cycle;Signal;HPM_P1;HPM_P2
2023/06/28 00:02:10;;;;;;;9.45;3.90;;;;;;;13.02;82.82;99727.14;1732904;82;27502;-67
2023/06/28 00:04:37;;;;;;;7.97;4.12;;;;;;;12.99;82.94;99722.38;1732805;82;25444;-66
2023/06/28 00:07:07;;;;;;;8.45;3.98;;;;;;;12.96;82.83;99719.79;1758268;81;25729;-66
2023/06/28 00:09:34;;;;;;;8.25;3.30;;;;;;;12.94;82.68;99721.25;1732805;82;25570;-66
2023/06/28 00:12:01;;;;;;;7.33;3.87;;;;;;;12.91;82.64;99723.30;1732915;82;25479;-67
2023/06/28 00:14:27;;;;;;;5.42;3.75;;;;;;;12.87;82.91;99725.88;1732875;82;27575;-67
2023/06/28 00:16:53;;;;;;;5.95;3.75;;;;;;;12.85;83.07;99729.50;1732785;82;25524;-67
2023/06/28 00:19:26;;;;;;;5.83;3.50;;;;;;;12.82;83.22;99722.02;1732887;82;25424;-67
2023/06/28 00:21:49;;;;;;;5.72;3.42;;;;;;;12.79;83.12;99727.58;1731894;82;25606;-67
2023/06/28 00:24:15;;;;;;;6.35;3.80;;;;;;;12.76;82.98;99726.89;1757826;81;25491;-67
2023/06/28 00:26:42;;;;;;;8.35;3.02;;;;;;;12.73;82.96;99722.70;1732884;82;27423;-67
2023/06/28 00:29:08;;;;;;;3.90;3.52;;;;;;;12.68;82.92;99722.34;1732806;82;25375;-67
2023/06/28 00:31:34;;;;;;;11.88;3.77;;;;;;;12.65;83.12;99727.90;1732789;82;25455;-66
2023/06/28 00:34:00;;;;;;;6.55;3.37;;;;;;;12.64;83.12;99732.30;1732919;82;25557;-67
2023/06/28 00:36:26;;;;;;;5.72;3.27;;;;;;;12.61;83.08;99725.61;1732849;82;25446;-66
2023/06/28 00:38:52;;;;;;;7.58;3.27;;;;;;;12.59;83.08;99728.45;1732871;82;27534;-67
2023/06/28 00:41:18;;;;;;;10.78;4.12;;;;;;;12.57;83.19;99734.78;1732822;82;25765;-67
2023/06/28 00:43:45;;;;;;;4.85;3.00;;;;;;;12.55;83.48;99741.08;1732902;82;25540;-67
2023/06/28 00:46:11;;;;;;;3.25;2.95;;;;;;;12.52;83.13;99745.27;1732826;82;25654;-67
2023/06/28 00:48:40;;;;;;;8.88;3.72;;;;;;;12.49;83.00;99752.14;1732870;82;25576;-67
2023/06/28 00:51:09;;;;;;;5.22;3.42;;;;;;;12.45;83.34;99752.59;1733046;82;27444;-67
2023/06/28 00:53:35;;;;;;;5.65;3.47;;;;;;;12.43;83.30;99744.55;1708329;82;25613;-67
2023/06/28 00:56:04;;;;;;;4.95;2.98;;;;;;;12.41;83.77;99749.52;1732827;82;25615;-67
2023/06/28 00:58:33;;;;;;;6.90;3.58;;;;;;;12.38;83.49;99747.47;1732834;82;25635;-67
2023/06/28 01:00:59;;;;;;;6.65;4.03;;;;;;;12.36;83.84;99742.95;1733081;82;25507;-67
2023/06/28 01:03:26;;;;;;;7.75;3.20;;;;;;;12.30;83.81;99740.45;1732884;82;27458;-67
2023/06/28 01:05:57;;;;;;;8.38;3.75;;;;;;;12.29;84.27;99746.20;1732771;82;25572;-67
2023/06/28 01:08:26;;;;;;;6.60;3.00;;;;;;;12.27;83.86;99738.97;1732870;82;25617;-65
2023/06/28 01:10:55;;;;;;;5.12;3.00;;;;;;;12.25;84.37;99731.17;1733001;82;26032;-66
2023/06/28 01:13:23;;;;;;;5.08;3.27;;;;;;;12.24;84.10;99735.56;1733126;82;25470;-66
2023/06/28 01:15:51;;;;;;;6.40;3.10;;;;;;;12.23;84.56;99739.42;1732827;82;27490;-67
2023/06/28 01:18:19;;;;;;;4.55;3.00;;;;;;;12.21;84.41;99734.33;1732774;82;25875;-67
2023/06/28 01:20:49;;;;;;;5.37;3.45;;;;;;;12.20;84.62;99736.80;1732842;82;25375;-67
2023/06/28 01:23:19;;;;;;;5.05;3.10;;;;;;;12.20;84.52;99738.16;1732882;82;25408;-68
2023/06/28 01:25:47;;;;;;;6.83;3.30;;;;;;;12.18;84.47;99739.63;1708139;82;25421;-66
2023/06/28 01:28:15;;;;;;;7.92;3.17;;;;;;;12.16;84.24;99737.25;1732873;82;27508;-66
2023/06/28 01:30:43;;;;;;;6.00;3.17;;;;;;;12.14;84.40;99744.92;1732727;82;27310;-65
2023/06/28 01:33:09;;;;;;;6.87;3.02;;;;;;;12.11;84.10;99738.23;1708172;82;25569;-66
2023/06/28 01:35:36;;;;;;;4.78;3.33;;;;;;;12.09;84.01;99737.78;1732890;82;25538;-65
2023/06/28 01:38:09;;;;;;;5.10;3.15;;;;;;;12.08;84.63;99729.98;1732907;82;25555;-66
2023/06/28 01:40:38;;;;;;;5.20;3.22;;;;;;;12.06;84.71;99735.73;1732910;82;28209;-66
2023/06/28 01:43:08;;;;;;;11.08;3.75;;;;;;;12.05;85.07;99739.55;1732928;82;25395;-66
2023/06/28 01:45:37;;;;;;;6.22;3.33;;;;;;;12.04;85.15;99729.85;1732871;82;25558;-66
2023/06/28 01:48:05;;;;;;;4.63;3.37;;;;;;;12.02;84.90;99734.00;1733048;82;25578;-67
2023/06/28 01:50:33;;;;;;;5.40;3.30;;;;;;;12.00;84.80;99733.55;1733194;82;25525;-67
2023/06/28 01:53:06;;;;;;;4.15;3.02;;;;;;;11.99;84.91;99736.83;1732975;82;27871;-66
2023/06/28 01:55:34;;;;;;;7.87;3.85;;;;;;;11.98;84.83;99736.59;1732979;82;25616;-66
2023/06/28 01:58:01;;;;;;;7.72;3.10;;;;;;;11.96;85.08;99736.91;1732971;82;25462;-67
2023/06/28 02:00:28;;;;;;;3.92;3.20;;;;;;;11.93;85.22;99731.38;1732967;82;25345;-66
2023/06/28 02:02:54;;;;;;;4.62;3.30;;;;;;;11.90;85.49;99728.75;1733080;82;25537;-67
2023/06/28 02:05:23;;;;;;;6.30;3.08;;;;;;;11.89;85.26;99726.36;1732972;82;27165;-67
2023/06/28 02:07:49;;;;;;;6.60;3.72;;;;;;;11.86;85.45;99733.22;1732900;82;25442;-66
2023/06/28 02:10:18;;;;;;;5.30;3.50;;;;;;;11.86;85.73;99739.22;1732964;82;25552;-66
2023/06/28 02:12:44;;;;;;;6.60;3.85;;;;;;;11.82;85.36;99733.67;1732911;82;25613;-66
2023/06/28 02:15:13;;;;;;;4.62;3.45;;;;;;;11.82;85.73;99728.81;1732970;82;25522;-66
2023/06/28 02:17:42;;;;;;;6.97;3.40;;;;;;;11.78;85.93;99729.47;1733006;82;27889;-66
2023/06/28 02:20:12;;;;;;;6.55;3.50;;;;;;;11.78;85.74;99731.37;1732850;82;25978;-65
2023/06/28 02:22:40;;;;;;;7.47;3.42;;;;;;;11.76;85.41;99734.98;1733002;82;25552;-66
2023/06/28 02:25:08;;;;;;;6.90;3.90;;;;;;;11.74;85.95;99732.59;1732884;82;25483;-67
2023/06/28 02:27:35;;;;;;;5.95;3.87;;;;;;;11.75;86.34;99732.05;1732962;82;25598;-65
2023/06/28 02:30:01;;;;;;;6.15;3.83;;;;;;;11.74;86.50;99734.52;1732942;82;27542;-66
2023/06/28 02:32:32;;;;;;;8.80;4.25;;;;;;;11.73;86.54;99735.63;1735336;82;26312;-67
2023/06/28 02:34:58;;;;;;;10.10;3.98;;;;;;;11.71;86.52;99729.75;1738322;82;25414;-67
2023/06/28 02:37:26;;;;;;;5.05;3.58;;;;;;;11.70;86.84;99727.62;1738138;82;25577;-67
2023/06/28 02:39:52;;;;;;;12.82;4.53;;;;;;;11.70;86.47;99735.74;1738405;82;25407;-67
2023/06/28 02:42:19;;;;;;;6.97;4.20;;;;;;;11.71;87.01;99732.47;1738320;82;27543;-67
2023/06/28 02:44:46;;;;;;;6.10;4.03;;;;;;;11.71;87.17;99729.75;1738383;82;25552;-67
2023/06/28 02:47:12;;;;;;;6.45;4.08;;;;;;;11.72;87.32;99726.72;1738302;82;25429;-66
2023/06/28 02:49:39;;;;;;;6.03;4.40;;;;;;;11.73;87.23;99730.21;1738255;82;25470;-66
2023/06/28 02:52:07;;;;;;;6.47;4.12;;;;;;;11.72;87.40;99732.70;1738318;82;25479;-67
2023/06/28 02:54:33;;;;;;;6.33;4.83;;;;;;;11.72;87.21;99724.58;1738493;82;28111;-67
2023/06/28 02:57:00;;;;;;;4.50;4.08;;;;;;;11.72;87.22;99730.78;1738147;82;27431;-67
2023/06/28 02:59:26;;;;;;;8.45;4.72;;;;;;;11.74;87.13;99733.95;1738300;82;25615;-67
2023/06/28 03:01:52;;;;;;;12.63;4.92;;;;;;;11.74;87.59;99731.81;1738280;82;25644;-67
2023/06/28 03:04:18;;;;;;;5.17;4.30;;;;;;;11.74;87.52;99731.81;1738357;82;25530;-67
2023/06/28 03:06:50;;;;;;;6.90;4.47;;;;;;;11.74;87.81;99727.75;1738308;82;27579;-67
2023/06/28 03:09:17;;;;;;;9.05;4.53;;;;;;;11.75;87.92;99722.57;1738182;82;25548;-67
2023/06/28 03:11:45;;;;;;;5.25;4.30;;;;;;;11.75;87.98;99727.42;1738265;82;25591;-67
2023/06/28 03:14:11;;;;;;;5.45;4.22;;;;;;;11.76;87.85;99722.78;1738215;82;26484;-67
2023/06/28 03:16:39;;;;;;;5.00;4.08;;;;;;;11.75;87.69;99724.70;1738269;82;25560;-66
2023/06/28 03:19:08;;;;;;;6.72;4.50;;;;;;;11.76;87.89;99724.95;1738300;82;27476;-67
2023/06/28 03:21:37;;;;;;;6.45;4.08;;;;;;;11.78;88.00;99721.89;1738136;82;25406;-68
2023/06/28 03:24:06;;;;;;;6.50;4.28;;;;;;;11.80;88.07;99731.86;1738320;82;25562;-67
2023/06/28 03:26:32;;;;;;;8.83;4.90;;;;;;;11.81;87.96;99725.87;1715305;82;25607;-67
2023/06/28 03:29:00;;;;;;;7.25;4.45;;;;;;;11.82;88.41;99730.95;1738293;82;25620;-67
2023/06/28 03:31:26;;;;;;;6.58;4.72;;;;;;;11.83;88.37;99727.67;1738134;82;27534;-67
2023/06/28 03:33:52;;;;;;;5.00;4.35;;;;;;;11.85;88.63;99728.95;1738010;82;25595;-67
2023/06/28 03:36:19;;;;;;;5.45;4.42;;;;;;;11.88;88.75;99720.70;1738160;82;25662;-67
2023/06/28 03:38:47;;;;;;;5.87;4.65;;;;;;;11.90;88.85;99727.39;1738123;82;25533;-67
2023/06/28 03:41:13;;;;;;;9.48;4.85;;;;;;;11.93;89.07;99724.02;1738158;82;25502;-68
2023/06/28 03:43:42;;;;;;;5.83;4.70;;;;;;;11.96;89.25;99719.30;1738182;82;27386;-67
2023/06/28 03:46:12;;;;;;;5.17;4.33;;;;;;;12.01;89.41;99713.47;1738076;82;25902;-67
2023/06/28 03:48:38;;;;;;;;;;;;;;;12.05;89.42;99731.42;1740736;82;25563;-67
2023/06/28 03:51:04;;;;;;;7.53;4.80;;;;;;;12.09;89.71;99730.22;1738138;82;25522;-68
2023/06/28 03:53:30;;;;;;;10.78;5.72;;;;;;;12.12;89.82;99734.41;1738186;82;25454;-68
2023/06/28 03:55:57;;;;;;;6.87;5.20;;;;;;;12.18;90.11;99735.56;1738088;82;27533;-68
2023/06/28 03:58:25;;;;;;;7.78;5.12;;;;;;;12.21;90.07;99738.39;1738018;82;25997;-67
2023/06/28 04:00:52;;;;;;;6.50;5.25;;;;;;;12.26;90.37;99734.12;1765717;80;25564;-67
2023/06/28 04:03:20;;;;;;;7.80;5.15;;;;;;;12.30;90.16;99728.81;1738067;82;25605;-67
2023/06/28 04:05:48;;;;;;;8.98;5.30;;;;;;;12.34;90.23;99725.66;1738110;82;25618;-68
2023/06/28 04:08:14;;;;;;;9.48;5.22;;;;;;;12.40;90.28;99728.97;1738120;82;27619;-67
2023/06/28 04:10:44;;;;;;;6.33;5.22;;;;;;;12.44;90.12;99731.23;1738117;82;25751;-67
2023/06/28 04:13:12;;;;;;;8.68;5.25;;;;;;;12.48;90.34;99730.23;1738123;82;25431;-67
2023/06/28 04:15:39;;;;;;;8.03;4.83;;;;;;;12.51;90.42;99732.28;1738073;82;26263;-67
2023/06/28 04:18:07;;;;;;;14.15;5.00;;;;;;;12.57;90.28;99737.49;1738159;82;25617;-68
2023/06/28 04:20:33;;;;;;;6.70;4.80;;;;;;;12.60;89.91;99730.83;1738114;82;27515;-68
2023/06/28 04:22:59;;;;;;;7.42;4.90;;;;;;;12.65;90.12;99731.97;1738073;82;25454;-68
2023/06/28 04:25:25;;;;;;;5.97;4.67;;;;;;;12.71;90.20;99736.61;1738088;82;25552;-67
2023/06/28 04:27:51;;;;;;;6.58;4.42;;;;;;;12.76;90.33;99735.03;1738165;82;25572;-67
2023/06/28 04:30:20;;;;;;;5.25;4.55;;;;;;;12.82;90.57;99735.59;1738096;82;25590;-67
2023/06/28 04:32:46;;;;;;;4.80;4.25;;;;;;;12.87;90.30;99736.19;1737960;82;27821;-68
2023/06/28 04:35:13;;;;;;;7.78;4.80;;;;;;;12.93;90.20;99739.46;1738002;82;25884;-67
2023/06/28 04:37:43;;;;;;;9.58;4.90;;;;;;;12.98;89.82;99740.59;1738153;82;25592;-67
2023/06/28 04:40:12;;;;;;;7.47;4.75;;;;;;;13.03;90.09;99740.38;1737729;82;25637;-67
2023/06/28 04:42:38;;;;;;;6.47;4.75;;;;;;;13.10;89.76;99745.81;1738288;82;25619;-67
2023/06/28 04:45:09;;;;;;;11.60;4.87;;;;;;;13.14;89.48;99746.71;1765688;80;27364;-67
2023/06/28 04:47:38;;;;;;;5.53;4.85;;;;;;;13.19;89.67;99743.19;1738062;82;25418;-68
2023/06/28 04:50:08;;;;;;;8.45;4.92;;;;;;;13.25;89.26;99746.50;1738242;82;25395;-67
2023/06/28 04:52:34;;;;;;;;;;;;;;;13.30;89.26;99742.19;1740695;82;25465;-68
2023/06/28 04:55:00;;;;;;;7.22;4.40;;;;;;;13.39;89.77;99749.67;1738125;82;25644;-68
2023/06/28 04:57:28;;;;;;;5.20;4.17;;;;;;;13.44;89.19;99748.66;1738089;82;27217;-68
2023/06/28 04:59:55;;;;;;;6.22;3.95;;;;;;;13.50;88.67;99747.84;1765113;80;25566;-65
2023/06/28 05:02:25;;;;;;;9.57;4.47;;;;;;;13.54;88.48;99739.26;1738362;82;25559;-65
2023/06/28 05:04:55;;;;;;;9.25;4.30;;;;;;;13.60;88.58;99740.05;1738025;82;26419;-68
2023/06/28 05:07:21;;;;;;;10.48;5.45;;;;;;;13.67;88.10;99737.30;1738348;82;25517;-65
2023/06/28 05:09:49;;;;;;;7.05;3.72;;;;;;;13.73;87.94;99738.65;1738221;82;27488;-65
2023/06/28 05:12:17;;;;;;;5.62;4.20;;;;;;;13.80;88.18;99740.22;1738000;82;27441;-62
2023/06/28 05:14:43;;;;;;;6.83;3.80;;;;;;;13.88;87.71;99731.71;1738097;82;25474;-63
2023/06/28 05:17:09;;;;;;;6.85;4.53;;;;;;;13.96;88.11;99730.20;1738045;82;25425;-60
2023/06/28 05:19:35;;;;;;;5.05;4.12;;;;;;;14.05;87.71;99724.63;1738146;82;25414;-62
2023/06/28 05:22:02;;;;;;;5.50;3.65;;;;;;;14.10;87.15;99728.45;1738096;82;27430;-63
2023/06/28 05:24:29;;;;;;;8.40;3.72;;;;;;;14.15;86.27;99725.48;1738028;82;25572;-63
2023/06/28 05:26:56;;;;;;;6.25;3.60;;;;;;;14.22;86.17;99721.36;1738230;82;25567;-59
2023/06/28 05:29:22;;;;;;;8.35;3.72;;;;;;;14.30;86.31;99722.59;1738148;82;25595;-57
2023/06/28 05:31:48;;;;;;;4.85;3.75;;;;;;;14.44;86.46;99718.09;1738282;82;25597;-56
2023/06/28 05:34:14;;;;;;;8.75;3.83;;;;;;;14.55;85.62;99723.80;1733740;82;27468;-57
2023/06/28 05:36:41;;;;;;;5.22;2.95;;;;;;;14.69;86.21;99726.94;1732924;82;25581;-54
2023/06/28 05:39:10;;;;;;;8.15;3.33;;;;;;;14.91;85.74;99719.28;1732985;82;25495;-55
2023/06/28 05:41:37;;;;;;;6.25;3.05;;;;;;;15.10;84.56;99717.20;1732886;82;25590;-56
2023/06/28 05:44:05;;;;;;;7.97;4.20;;;;;;;15.27;84.71;99717.39;1732962;82;25623;-53
2023/06/28 05:46:31;;;;;;;5.85;3.20;;;;;;;15.52;84.90;99719.91;1732992;82;28411;-53
2023/06/28 05:49:00;;;;;;;6.37;3.17;;;;;;;15.75;83.72;99724.08;1732904;82;25543;-55
2023/06/28 05:51:27;;;;;;;5.42;3.00;;;;;;;15.93;82.84;99714.94;1733002;82;25428;-53
2023/06/28 05:53:53;;;;;;;5.15;3.42;;;;;;;16.10;81.88;99719.95;1732959;82;25501;-54
2023/06/28 05:56:19;;;;;;;7.10;3.00;;;;;;;16.23;80.87;99720.02;1733025;82;25461;-54
2023/06/28 05:58:45;;;;;;;6.08;2.85;;;;;;;16.34;80.23;99715.34;1732997;82;28415;-53
2023/06/28 06:01:12;;;;;;;4.17;2.85;;;;;;;16.46;80.06;99713.02;1732855;82;25526;-55
2023/06/28 06:03:41;;;;;;;4.85;2.77;;;;;;;16.61;80.08;99712.89;1683183;84;25442;-54
2023/06/28 06:06:09;;;;;;;5.62;2.98;;;;;;;16.74;79.34;99708.64;1732888;82;25464;-56
2023/06/28 06:08:37;;;;;;;6.10;2.35;;;;;;;16.86;78.84;99715.30;1732982;82;25546;-53
2023/06/28 06:11:03;;;;;;;4.80;2.55;;;;;;;16.91;77.79;99716.95;1732976;82;27527;-55
2023/06/28 06:13:32;;;;;;;6.42;2.60;;;;;;;16.93;76.78;99712.68;1732834;82;25627;-52
2023/06/28 06:16:00;;;;;;;3.63;2.40;;;;;;;16.92;76.34;99715.19;1733245;82;25475;-52
2023/06/28 06:18:27;;;;;;;5.05;3.02;;;;;;;16.93;75.82;99715.41;1733075;82;25597;-56
2023/06/28 06:20:53;;;;;;;4.17;2.70;;;;;;;16.91;75.18;99718.31;1733015;82;25221;-55
2023/06/28 06:23:19;;;;;;;7.17;2.85;;;;;;;16.88;75.32;99709.48;1733001;82;27603;-53
2023/06/28 06:25:47;;;;;;;5.67;2.60;;;;;;;16.91;75.52;99701.34;1732828;82;25510;-54
2023/06/28 06:28:13;;;;;;;6.92;2.60;;;;;;;16.99;75.27;99704.95;1732935;82;25545;-53
2023/06/28 06:30:40;;;;;;;5.85;2.55;;;;;;;17.07;75.23;99708.01;1732953;82;25570;-56
2023/06/28 06:33:06;;;;;;;4.67;2.33;;;;;;;;;;1733895;82;25604;-54
2023/06/28 06:35:32;;;;;;;5.80;2.70;;;;;;;17.20;74.40;99711.34;1723414;82;27451;-55
2023/06/28 06:37:58;;;;;;;3.10;2.30;;;;;;;17.21;73.35;99704.70;1721711;83;25757;-54
2023/06/28 06:40:27;;;;;;;3.70;2.20;;;;;;;17.29;74.03;99705.61;1721786;83;25575;-53
2023/06/28 06:42:54;;;;;;;3.67;2.20;;;;;;;17.41;73.62;99699.91;1721851;83;25477;-56
2023/06/28 06:45:22;;;;;;;6.03;2.30;;;;;;;17.50;72.97;99705.92;1721847;83;25693;-55
2023/06/28 06:47:50;;;;;;;6.40;2.40;;;;;;;17.55;71.45;99697.39;1721777;83;28474;-52
2023/06/28 06:50:19;;;;;;;5.17;2.25;;;;;;;17.61;72.27;99696.48;1721840;83;25421;-53
2023/06/28 06:52:45;;;;;;;6.58;2.40;;;;;;;17.78;73.08;99696.50;1721778;83;25763;-55
2023/06/28 06:55:13;;;;;;;5.05;2.10;;;;;;;17.98;72.49;99695.80;1721740;83;26753;-52
2023/06/28 06:57:40;;;;;;;4.72;2.10;;;;;;;18.14;71.48;99697.52;1721754;83;25553;-55
2023/06/28 07:00:10;;;;;;;3.17;1.87;;;;;;;18.29;70.80;99695.14;1721742;83;28569;-52
2023/06/28 07:02:37;;;;;;;3.15;1.75;;;;;;;18.38;69.73;99692.88;1721744;83;25474;-51
2023/06/28 07:05:09;;;;;;;6.40;2.22;;;;;;;18.53;70.11;99693.03;1721755;83;25483;-52
2023/06/28 07:07:39;;;;;;;4.47;2.10;;;;;;;18.77;70.62;99699.88;1721790;83;25683;-52
2023/06/28 07:10:10;;;;;;;3.70;2.00;;;;;;;19.06;70.49;99700.91;1721802;83;25214;-52
2023/06/28 07:12:38;;;;;;;3.27;1.90;;;;;;;19.29;68.55;99697.94;1721776;83;28203;-54
2023/06/28 07:15:10;;;;;;;6.83;2.30;;;;;;;19.50;67.72;99694.52;1721565;83;25726;-53
2023/06/28 07:17:36;;;;;;;4.50;2.00;;;;;;;19.69;67.17;99693.44;1721795;83;25588;-53
2023/06/28 07:20:09;;;;;;;5.97;2.67;;;;;;;19.91;66.65;99693.56;1721742;83;26025;-53
2023/06/28 07:22:39;;;;;;;3.92;1.87;;;;;;;20.09;65.47;99701.27;1721886;83;25583;-54
2023/06/28 07:25:10;;;;;;;6.28;1.92;;;;;;;20.23;64.82;99703.86;1698497;83;27360;-53
2023/06/28 07:27:36;;;;;;;6.12;2.05;;;;;;;20.37;65.04;99702.50;1721675;83;25465;-55
2023/06/28 07:30:08;;;;;;;9.65;2.40;;;;;;;20.64;64.49;99706.30;1721668;83;25588;-55
2023/06/28 07:32:36;;;;;;;3.70;1.60;;;;;;;20.79;63.57;99695.51;1721731;83;25509;-57
2023/06/28 07:35:02;;;;;;;4.78;2.08;;;;;;;20.98;63.37;99705.31;1721668;83;25405;-54
2023/06/28 07:37:30;;;;;;;4.12;2.60;;;;;;;21.30;62.83;99706.44;1721710;83;28085;-54
2023/06/28 07:39:58;;;;;;;3.70;1.90;;;;;;;21.58;62.82;99691.86;1721592;83;26211;-57
2023/06/28 07:42:31;;;;;;;8.28;2.17;;;;;;;21.86;61.79;99706.09;1721750;83;25576;-55
2023/06/28 07:45:00;;;;;;;6.72;4.30;;;;;;;21.90;60.22;99701.97;1721351;83;27295;-55
2023/06/28 07:47:28;;;;;;;4.15;2.02;;;;;;;22.12;60.58;99704.02;1721583;83;25572;-52
2023/06/28 07:49:54;;;;;;;2.90;1.60;;;;;;;22.42;59.14;99698.55;1721702;83;28184;-52
2023/06/28 07:52:20;;;;;;;6.12;1.87;;;;;;;22.55;58.42;99699.03;1721643;82;25613;-54
2023/06/28 07:54:46;;;;;;;5.03;1.70;;;;;;;22.50;57.38;99706.95;1721665;82;25608;-56
2023/06/28 07:57:13;;;;;;;3.83;1.62;;;;;;;22.63;56.81;99697.59;1721638;83;25650;-52
2023/06/28 07:59:39;;;;;;;7.58;2.72;;;;;;;22.67;55.92;99695.01;1721737;83;25569;-56
2023/06/28 08:02:08;;;;;;;4.95;2.10;;;;;;;22.49;54.60;99688.84;1697974;83;27456;-53
2023/06/28 08:04:34;;;;;;;6.35;1.90;;;;;;;22.37;54.24;99696.99;1721566;83;25458;-52
2023/06/28 08:07:00;;;;;;;5.85;1.77;;;;;;;22.28;54.50;99701.58;1721657;83;25564;-55
2023/06/28 08:09:27;;;;;;;5.28;1.50;;;;;;;22.28;54.00;99689.78;1721723;83;25615;-59
2023/06/28 08:11:53;;;;;;;5.67;1.52;;;;;;;22.27;54.61;99688.98;1697933;83;25654;-59
2023/06/28 08:14:19;;;;;;;4.10;1.90;;;;;;;22.37;53.98;99691.48;1721676;83;27512;-59
2023/06/28 08:16:48;;;;;;;3.33;1.20;;;;;;;22.18;54.05;99689.40;1721537;83;26297;-59
2023/06/28 08:19:15;;;;;;;4.47;1.85;;;;;;;22.07;53.97;99691.45;1721702;83;25604;-59
2023/06/28 08:21:42;;;;;;;8.63;1.85;;;;;;;22.25;55.23;99684.44;1721652;81;25636;-59
2023/06/28 08:24:08;;;;;;;1.80;1.35;;;;;;;22.38;54.64;99682.05;1721703;83;25403;-60
2023/06/28 08:26:37;;;;;;;4.05;1.40;;;;;;;22.56;53.18;99685.45;1721598;83;27443;-61
2023/06/28 08:29:05;;;;;;;5.75;1.42;;;;;;;22.81;53.29;99685.06;1721624;83;26582;-61
2023/06/28 08:31:31;;;;;;;17.40;16.07;;;;;;;23.07;52.32;99685.04;1721132;83;26216;-61
2023/06/28 08:33:58;;;;;;;2.83;2.05;;;;;;;23.40;52.69;99675.85;1721028;83;26097;-62
2023/06/28 08:36:25;;;;;;;6.85;5.58;;;;;;;23.70;51.64;99684.77;1721174;83;25638;-62
2023/06/28 08:38:51;;;;;;;5.03;4.08;;;;;;;23.74;50.73;99680.58;1721685;83;28167;-62
2023/06/28 08:41:24;;;;;;;3.15;1.47;;;;;;;23.86;50.30;99678.06;1721510;83;25576;-61
2023/06/28 08:43:54;;;;;;;58.45;55.30;;;;;;;24.06;49.76;99674.66;1721717;83;25624;-61
2023/06/28 08:46:25;;;;;;;63.08;59.45;;;;;;;24.12;49.98;99674.97;1721414;83;25513;-63
2023/06/28 08:48:55;;;;;;;25.57;24.02;;;;;;;24.31;48.58;99666.59;1699373;83;25709;-63
2023/06/28 08:51:25;;;;;;;63.42;59.90;;;;;;;24.08;48.24;99661.81;1721753;83;27361;-63
2023/06/28 08:53:55;;;;;;;23.32;21.48;;;;;;;24.07;48.79;99673.44;1721506;83;25602;-61
2023/06/28 08:56:23;;;;;;;10.35;3.98;;;;;;;24.13;48.64;99668.25;1721751;83;25623;-61
2023/06/28 08:58:51;;;;;;;3.92;1.87;;;;;;;24.33;48.87;99666.37;1721709;83;25483;-61
2023/06/28 09:01:25;;;;;;;23.73;22.48;;;;;;;24.56;47.26;99661.48;1722088;83;25650;-60
2023/06/28 09:03:50;;;;;;;2.52;1.22;;;;;;;24.65;47.79;99662.94;1721562;83;27838;-61
2023/06/28 09:06:28;;;;;;;66.20;62.43;;;;;;;25.04;48.14;99654.55;1721919;83;25250;-65
2023/06/28 09:08:59;;;;;;;65.97;61.85;;;;;;;25.38;45.82;99650.17;1645514;87;25436;-62
2023/06/28 09:11:27;;;;;;;68.97;64.67;;;;;;;25.41;46.14;99650.70;1642193;86;25590;-64
2023/06/28 09:13:53;;;;;;;68.65;63.87;;;;;;;25.39;45.82;99642.05;1664577;86;25452;-61
2023/06/28 09:16:22;;;;;;;65.37;61.58;;;;;;;25.68;45.78;99640.08;1664572;86;27659;-60
2023/06/28 09:18:48;;;;;;;47.95;44.42;;;;;;;25.69;44.04;99647.97;1664586;86;25592;-58
2023/06/28 09:21:26;;;;;;;64.22;60.38;;;;;;;25.43;42.90;99661.36;1664551;86;25511;-56
2023/06/28 09:24:04;;;;;;;67.47;63.87;;;;;;;24.77;42.71;99655.41;1664589;86;25674;-58
2023/06/28 09:26:34;;;;;;;5.92;1.30;;;;;;;24.18;43.77;99654.75;1642291;86;25725;-56
2023/06/28 09:29:10;;;;;;;3.15;1.40;;;;;;;23.74;44.70;99659.27;1664276;86;27475;-59
2023/06/28 09:31:42;;;;;;;5.30;1.40;;;;;;;23.37;45.07;99662.27;1658613;86;25583;-55
2023/06/28 09:34:09;;;;;;;5.83;2.25;;;;;;;22.97;45.69;99659.13;1663433;86;25630;-59
2023/06/28 09:36:38;;;;;;;4.58;2.20;;;;;;;22.66;45.99;99661.77;1664508;86;26239;-54
2023/06/28 09:39:07;;;;;;;5.85;2.33;;;;;;;22.36;46.77;99652.74;1664679;86;25611;-52
2023/06/28 09:41:42;;;;;;;3.75;1.42;;;;;;;22.37;48.21;99663.36;1664521;86;28080;-54
2023/06/28 09:44:11;;;;;;;69.65;65.65;;;;;;;22.48;47.65;99666.02;1664430;86;25669;-55
2023/06/28 09:46:46;;;;;;;69.42;65.67;;;;;;;22.57;48.18;99657.30;1712370;82;25365;-54
2023/06/28 09:49:23;;;;;;;68.37;64.27;;;;;;;23.11;49.01;99666.50;1707250;84;25610;-55
2023/06/28 09:52:03;;;;;;;68.22;63.80;;;;;;;23.72;49.41;99653.95;1707295;84;25625;-56
2023/06/28 09:54:37;;;;;;;67.62;63.75;;;;;;;24.27;47.43;99654.22;1702643;84;27135;-53
2023/06/28 09:57:06;;;;;;;67.75;63.87;;;;;;;24.75;47.96;99647.53;1707375;83;25899;-56
2023/06/28 09:59:34;;;;;;;64.17;60.67;;;;;;;25.35;46.13;99651.81;1707256;84;25554;-57
2023/06/28 10:02:08;;;;;;;65.62;61.95;;;;;;;25.71;44.90;99648.31;1706496;84;25723;-57
2023/06/28 10:04:37;;;;;;;63.48;59.60;;;;;;;25.73;44.23;99644.50;1707304;83;25727;-57
2023/06/28 10:07:06;;;;;;;65.92;62.33;;;;;;;25.94;44.77;99643.09;1707237;83;27457;-58
2023/06/28 10:09:41;;;;;;;65.65;61.85;;;;;;;25.97;43.79;99640.88;1707291;84;25673;-56
2023/06/28 10:12:16;;;;;;;65.00;61.05;;;;;;;25.98;43.25;99649.34;1738015;82;25463;-58
2023/06/28 10:14:55;;;;;;;63.28;59.60;;;;;;;25.72;42.59;99643.55;1738054;82;25525;-55
2023/06/28 10:17:24;;;;;;;64.40;60.60;;;;;;;25.21;41.91;99640.20;1738321;82;25644;-59
2023/06/28 10:19:53;;;;;;;64.82;60.98;;;;;;;24.66;42.30;99641.78;1715173;82;28004;-58
2023/06/28 10:22:21;;;;;;;65.20;61.45;;;;;;;24.13;42.74;99645.55;1738386;82;25465;-59
2023/06/28 10:24:52;;;;;;;65.78;61.73;;;;;;;23.62;43.10;99649.55;1738702;82;25154;-64
2023/06/28 10:27:21;;;;;;;31.73;29.12;;;;;;;23.25;43.47;99649.01;1738496;82;25554;-63
2023/06/28 10:29:51;;;;;;;7.00;1.30;;;;;;;23.03;44.31;99650.57;1738846;82;25410;-63
2023/06/28 10:32:20;;;;;;;6.53;1.60;;;;;;;22.81;44.68;99651.37;1731216;81;28036;-64
2023/06/28 10:34:52;;;;;;;6.92;1.65;;;;;;;22.62;44.91;99658.84;1709388;83;25675;-64
2023/06/28 10:37:24;;;;;;;6.83;2.02;;;;;;;22.41;45.38;99661.15;1709058;83;25670;-65
2023/06/28 10:39:56;;;;;;;4.10;1.30;;;;;;;22.28;45.89;99652.00;1716693;79;25810;-66
2023/06/28 10:45:00;;;;;;;4.05;1.60;;;;;;;22.08;45.91;99661.33;1668809;85;25969;-63
2023/06/28 10:50:16;;;;;;;12.43;7.10;;;;;;;22.09;46.65;99649.75;1784142;75;27111;-66
2023/06/28 11:15:30;;;;;;;3.02;1.30;;;;;;;24.37;45.48;99638.07;1777554;76;25518;-62
2023/06/28 11:18:11;;;;;;;9.10;6.55;;;;;;;24.38;44.94;99635.50;1663071;85;25868;-62
2023/06/28 11:21:04;;;;;;;5.90;4.60;;;;;;;24.41;44.11;99629.11;1715017;81;27063;-62
2023/06/28 11:23:47;;;;;;;10.32;1.87;;;;;;;24.12;43.63;99643.20;1758704;78;27147;-61
2023/06/28 11:41:15;;;;;;;4.03;1.90;;;;;;;22.59;44.46;99654.14;1706241;80;27456;31
2023/06/28 11:43:44;;;;;;;4.80;2.00;;;;;;;22.36;44.89;99652.14;1700908;83;25930;-54
2023/06/28 11:46:20;;;;;;;3.62;1.70;;;;;;;22.19;45.08;99648.29;1721321;83;25543;-57
2023/06/28 11:48:49;;;;;;;3.70;1.57;;;;;;;22.07;45.60;99650.14;1721246;83;26077;-57
2023/06/28 11:51:16;;;;;;;;;;;;;;;21.89;46.12;99656.34;1723914;83;25535;-54
2023/06/28 11:53:49;;;;;;;5.78;1.90;;;;;;;21.73;46.51;99661.73;1721337;83;27556;-58
2023/06/28 11:56:15;;;;;;;4.65;1.85;;;;;;;21.54;47.03;99664.94;1725109;83;25647;-52
2023/06/28 11:58:43;;;;;;;5.55;1.70;;;;;;;21.39;47.47;99665.56;1725898;83;25637;-56
2023/06/28 12:01:21;;;;;;;4.55;1.42;;;;;;;;;;1725863;83;25543;-54
2023/06/28 12:03:48;;;;;;;5.35;1.70;;;;;;;21.13;46.94;99668.97;1725947;82;25444;-57
2023/06/28 12:06:15;;;;;;;5.37;1.80;;;;;;;21.03;47.26;99662.90;1725890;83;28043;-55
2023/06/28 12:08:41;;;;;;;4.40;2.25;;;;;;;20.98;47.65;99671.55;1705100;83;25874;-56
2023/06/28 12:11:15;;;;;;;3.55;2.00;;;;;;;20.95;47.43;99659.36;1725891;83;25577;-54
2023/06/28 12:13:42;;;;;;;6.08;1.65;;;;;;;20.90;47.58;99668.01;1725204;83;26092;-58
2023/06/28 12:16:15;;;;;;;8.80;1.87;;;;;;;20.89;48.08;99669.98;1725905;83;25467;-56
2023/06/28 12:19:01;;;;;;;6.40;1.55;;;;;;;20.92;48.08;99667.62;1725999;83;27480;-55
2023/06/28 12:21:30;;;;;;;5.40;1.87;;;;;;;20.92;48.51;99675.27;1725774;83;26006;-58